createdAt,value
2023-05-20T00:04:50.150Z,9.4
2023-05-20T00:09:56.447Z,9.4
2023-05-20T00:15:02.747Z,9.4
2023-05-20T00:20:09.164Z,9.4
2023-05-20T00:25:15.508Z,9.4
2023-05-20T00:30:21.905Z,9.4
2023-05-20T00:35:28.215Z,9.4
2023-05-20T00:40:34.607Z,9.4
2023-05-20T00:45:41.000Z,9.3
2023-05-20T00:50:47.275Z,9.3
2023-05-20T00:55:53.652Z,9.3
2023-05-20T01:01:00.134Z,9.3
2023-05-20T01:11:12.721Z,9.3
2023-05-20T01:16:19.167Z,9.3
2023-05-20T01:21:25.457Z,9.3
2023-05-20T01:26:31.825Z,9.2
2023-05-20T01:31:38.236Z,9.2
2023-05-20T01:36:44.476Z,9.2
2023-05-20T01:41:50.900Z,9.2
2023-05-20T01:46:57.320Z,9.2
2023-05-20T01:52:03.601Z,9.2
2023-05-20T01:57:09.990Z,9.2
2023-05-20T02:02:16.370Z,9.2
2023-05-20T02:07:22.708Z,9.2
2023-05-20T02:12:29.032Z,9.1
2023-05-20T02:17:35.396Z,9.1
2023-05-20T02:22:41.770Z,9.1
2023-05-20T02:27:48.144Z,9.1
2023-05-20T02:32:54.739Z,9.1
2023-05-20T02:38:00.844Z,9.1
2023-05-20T02:43:07.176Z,9.1
2023-05-20T02:48:13.573Z,9.1
2023-05-20T02:53:19.931Z,9.1
2023-05-20T02:58:26.426Z,9.1
2023-05-20T03:03:32.709Z,9.1
2023-05-20T03:08:39.052Z,9
2023-05-20T03:13:45.400Z,9
2023-05-20T03:18:51.783Z,9
2023-05-20T03:23:58.108Z,9
2023-05-20T03:29:04.489Z,9
2023-05-20T03:34:10.827Z,9
2023-05-20T03:39:17.215Z,9
2023-05-20T03:44:23.600Z,9
2023-05-20T03:49:29.898Z,8.9
2023-05-20T03:54:36.282Z,8.9
2023-05-20T03:59:42.610Z,8.9
2023-05-20T04:04:48.990Z,8.9
2023-05-20T04:09:55.356Z,8.9
2023-05-20T04:15:01.734Z,8.9
2023-05-20T04:20:08.120Z,8.9
2023-05-20T04:25:14.426Z,8.9
2023-05-20T04:30:20.774Z,8.9
2023-05-20T04:35:27.148Z,8.9
2023-05-20T04:40:33.507Z,8.8
2023-05-20T04:45:39.867Z,8.8
2023-05-20T04:50:46.247Z,8.8
2023-05-20T04:55:52.572Z,8.8
2023-05-20T05:00:58.908Z,8.8
2023-05-20T05:11:11.668Z,8.8
2023-05-20T05:16:18.068Z,8.7
2023-05-20T05:21:24.384Z,8.6
2023-05-20T05:41:49.760Z,8.6
2023-05-20T05:46:56.206Z,8.6
2023-05-20T05:52:02.531Z,8.6
2023-05-20T05:57:08.896Z,8.5
2023-05-20T06:02:15.317Z,8.5
2023-05-20T06:07:21.572Z,8.5
2023-05-20T06:12:27.982Z,8.5
2023-05-20T06:17:34.407Z,8.5
2023-05-20T06:22:40.693Z,8.5
2023-05-20T06:27:47.069Z,8.5
2023-05-20T06:32:53.439Z,8.5
2023-05-20T06:37:59.765Z,8.4
2023-05-20T06:43:06.143Z,8.4
2023-05-20T06:48:12.457Z,8.4
2023-05-20T06:53:18.877Z,8.4
2023-05-20T06:58:25.217Z,8.3
2023-05-20T07:03:31.607Z,8.3
2023-05-20T07:08:37.940Z,7.9
2023-05-20T07:13:44.321Z,7.7
2023-05-20T07:18:52.280Z,7.6
2023-05-20T07:23:58.619Z,7.4
2023-05-20T07:29:04.986Z,7.3
2023-05-20T07:34:11.334Z,7.3
2023-05-20T07:39:17.676Z,7
2023-05-20T07:44:23.986Z,7
2023-05-20T07:49:30.397Z,6.9
2023-05-20T07:59:43.134Z,6.9
2023-05-20T08:04:49.502Z,7
2023-05-20T08:09:55.827Z,7
2023-05-20T08:15:02.221Z,7
2023-05-20T08:20:08.534Z,7
2023-05-20T08:25:14.860Z,7
2023-05-20T08:30:21.284Z,7
2023-05-20T08:35:27.580Z,6.9
2023-05-20T08:40:34.006Z,7.1
2023-05-20T08:45:40.346Z,7.1
2023-05-20T08:50:46.738Z,7.1
2023-05-20T08:55:53.059Z,7.2
2023-05-20T09:00:59.448Z,7.2
2023-05-20T09:06:05.746Z,7.3
2023-05-20T09:11:12.147Z,7.3
2023-05-20T09:16:18.538Z,7.3
2023-05-20T09:21:24.865Z,7.5
2023-05-20T09:26:31.212Z,7.5
2023-05-20T09:31:37.580Z,7.5
2023-05-20T09:36:43.905Z,7.5
2023-05-20T09:41:50.285Z,7.5
2023-05-20T09:46:58.251Z,7.6
2023-05-20T09:52:04.609Z,7.6
2023-05-20T09:57:10.950Z,7.6
2023-05-20T10:02:17.381Z,7.6
2023-05-20T10:07:37.953Z,7.6
2023-05-20T10:17:36.464Z,7.8
2023-05-20T10:22:43.114Z,7.8
2023-05-20T10:27:49.116Z,7.8
2023-05-20T10:32:55.711Z,7.8
2023-05-20T10:38:01.852Z,7.9
2023-05-20T10:43:08.185Z,7.8
2023-05-20T10:48:14.634Z,7.8
2023-05-20T10:53:32.271Z,7.9
2023-05-20T10:58:27.240Z,7.8
2023-05-20T11:03:33.705Z,7.8
2023-05-20T11:08:39.972Z,7.8
2023-05-20T11:13:46.341Z,8
2023-05-20T11:18:52.804Z,8
2023-05-20T11:29:05.420Z,8
2023-05-20T11:34:11.770Z,8
2023-05-20T11:39:19.737Z,8.1
2023-05-20T11:44:26.101Z,8.1
2023-05-20T11:49:32.392Z,8.1
2023-05-20T11:54:38.784Z,8.1
2023-05-20T11:59:45.124Z,8.1
2023-05-20T12:04:51.541Z,8.2
2023-05-20T12:09:57.850Z,8.2
2023-05-20T12:15:04.196Z,8.2
2023-05-20T12:20:10.576Z,8.3
2023-05-20T12:25:16.923Z,8.3
2023-05-20T12:30:23.301Z,8.4
2023-05-20T12:35:29.661Z,8.5
2023-05-20T12:40:36.222Z,8.5
2023-05-20T12:45:42.360Z,8.5
2023-05-20T12:50:48.709Z,8.5
2023-05-20T12:55:55.075Z,8.5
2023-05-20T13:01:01.428Z,8.5
2023-05-20T13:06:07.749Z,8.5
2023-05-20T13:16:20.531Z,8.6
2023-05-20T13:26:33.194Z,8.6
2023-05-20T13:31:39.612Z,8.8
2023-05-20T13:46:58.587Z,8.8
2023-05-20T13:52:04.946Z,8.8
2023-05-20T13:57:11.352Z,8.8
2023-05-20T14:02:17.666Z,8.8
2023-05-20T14:07:24.053Z,8.8
2023-05-20T14:12:30.404Z,8.8
2023-05-20T14:17:36.809Z,8.7
2023-05-20T14:22:43.134Z,8.6
2023-05-20T14:27:49.515Z,8.6
2023-05-20T14:32:57.414Z,8.6
2023-05-20T14:38:05.395Z,8.6
2023-05-20T14:43:11.761Z,8.7
2023-05-20T14:48:18.049Z,8.9
2023-05-20T14:53:24.492Z,8.9
2023-05-20T14:58:30.823Z,9
2023-05-20T15:03:37.201Z,9
2023-05-20T15:08:43.559Z,9.1
2023-05-20T15:13:49.895Z,9.1
2023-05-20T15:18:56.313Z,9.4
2023-05-20T15:29:08.910Z,9.3
2023-05-20T15:34:15.342Z,9.4
2023-05-20T15:39:21.679Z,9.4
2023-05-20T15:44:28.045Z,9.4
2023-05-20T15:49:36.016Z,9.6
2023-05-20T15:59:48.709Z,9.6
2023-05-20T16:04:55.070Z,9.6
2023-05-20T16:10:01.513Z,9.6
2023-05-20T16:15:07.767Z,9.6
2023-05-20T16:20:14.161Z,9.6
2023-05-20T16:25:22.110Z,9.7
2023-05-20T16:30:28.467Z,9.6
2023-05-20T16:35:34.731Z,9.6
2023-05-20T16:40:41.148Z,9.7
2023-05-20T16:45:47.557Z,9.8
2023-05-20T16:50:53.801Z,9.8
2023-05-20T16:56:00.235Z,9.7
2023-05-20T17:01:08.235Z,9.7
2023-05-20T17:11:22.532Z,9.7
2023-05-20T17:16:28.952Z,9.7
2023-05-20T17:26:41.544Z,9.7
2023-05-20T17:31:47.918Z,9.8
2023-05-20T17:36:54.287Z,9.8
2023-05-20T17:42:00.567Z,9.8
2023-05-20T17:47:06.981Z,9.8
2023-05-20T17:52:13.358Z,9.8
2023-05-20T17:57:19.711Z,9.8
2023-05-20T18:02:26.055Z,9.8
2023-05-20T18:07:32.420Z,9.7
2023-05-20T18:12:40.363Z,9.7
2023-05-20T18:17:46.776Z,9.7
2023-05-20T18:22:54.700Z,9.7
2023-05-20T18:28:01.017Z,9.7
2023-05-20T18:33:07.433Z,9.7
2023-05-20T18:38:13.707Z,9.8
2023-05-20T18:43:20.122Z,9.9
2023-05-20T18:48:27.390Z,9.9
2023-05-20T18:53:32.819Z,9.9
2023-05-20T18:58:39.198Z,9.8
2023-05-20T19:03:45.536Z,9.5
2023-05-20T19:08:51.889Z,9.3
2023-05-20T19:13:58.249Z,9.2
2023-05-20T19:19:04.553Z,9.2
2023-05-20T19:24:12.554Z,9.2
2023-05-20T19:29:18.850Z,9.1
2023-05-20T19:34:25.318Z,9.1
2023-05-20T19:39:31.660Z,9.1
2023-05-20T19:44:37.986Z,9.1
2023-05-20T19:49:44.357Z,9.1
2023-05-20T19:54:50.678Z,9.1
2023-05-20T19:59:57.041Z,9.1
2023-05-20T20:05:03.454Z,9.1
2023-05-20T20:10:09.747Z,9.1
2023-05-20T20:15:16.419Z,9.1
2023-05-20T20:20:22.529Z,9.1
2023-05-20T20:25:28.820Z,9.1
2023-05-20T20:30:35.246Z,9.1
2023-05-20T20:35:43.190Z,8.9
2023-05-20T20:40:49.518Z,9.1
2023-05-20T20:45:55.914Z,9.1
2023-05-20T20:51:02.250Z,8.9
2023-05-20T20:56:08.562Z,8.9
2023-05-20T21:01:14.988Z,8.9
2023-05-20T21:06:21.309Z,8.9
2023-05-20T21:11:27.707Z,8.9
2023-05-20T21:21:40.407Z,8.9
2023-05-20T21:31:53.146Z,8.9
2023-05-20T21:36:59.464Z,8.9
2023-05-20T21:42:05.822Z,8.9
2023-05-20T21:47:13.812Z,8.9
2023-05-20T21:52:20.150Z,8.8
2023-05-20T21:57:26.505Z,8.8
2023-05-20T22:02:32.957Z,8.8
2023-05-20T22:07:39.225Z,8.8
2023-05-20T22:17:52.012Z,8.8
2023-05-20T22:22:58.318Z,8.8
2023-05-20T22:28:04.686Z,8.8
2023-05-20T22:33:11.040Z,8.8
2023-05-20T22:38:17.424Z,8.8
2023-05-20T22:43:23.803Z,8.7
2023-05-20T22:48:30.109Z,8.7
2023-05-20T22:53:36.464Z,8.7
2023-05-20T22:58:44.376Z,8.7
2023-05-20T23:03:50.768Z,8.7
2023-05-20T23:08:57.157Z,8.7
2023-05-20T23:14:03.548Z,8.6
2023-05-20T23:19:09.837Z,8.6
2023-05-20T23:24:16.190Z,8.6
2023-05-20T23:29:22.513Z,8.6
2023-05-20T23:34:28.990Z,8.6
2023-05-20T23:39:35.315Z,8.6
2023-05-20T23:44:41.629Z,8.6
2023-05-20T23:49:49.371Z,8.6
2023-05-20T23:54:54.368Z,8.6
